sensor_id;sensor_type;location;lat;lon;timestamp;temperature;humidity
4411;DHT22;2218;51.408;7.208;2024-01-06T00:01:10;16.30;46.30
4411;DHT22;2218;51.408;7.208;2024-01-06T00:03:38;16.30;46.40
4411;DHT22;2218;51.408;7.208;2024-01-06T00:06:05;16.30;46.40
4411;DHT22;2218;51.408;7.208;2024-01-06T00:08:33;16.30;46.40
4411;DHT22;2218;51.408;7.208;2024-01-06T00:11:01;16.30;46.40
4411;DHT22;2218;51.408;7.208;2024-01-06T00:13:30;16.30;46.50
4411;DHT22;2218;51.408;7.208;2024-01-06T00:15:57;16.30;46.50
4411;DHT22;2218;51.408;7.208;2024-01-06T00:18:24;16.20;46.40
4411;DHT22;2218;51.408;7.208;2024-01-06T00:20:51;16.20;46.40
4411;DHT22;2218;51.408;7.208;2024-01-06T00:23:17;16.20;46.50
4411;DHT22;2218;51.408;7.208;2024-01-06T00:25:44;16.20;46.40
4411;DHT22;2218;51.408;7.208;2024-01-06T00:28:13;16.20;46.50
4411;DHT22;2218;51.408;7.208;2024-01-06T00:30:40;16.20;46.50
4411;DHT22;2218;51.408;7.208;2024-01-06T00:33:06;16.20;46.50
4411;DHT22;2218;51.408;7.208;2024-01-06T00:35:33;16.20;46.50
4411;DHT22;2218;51.408;7.208;2024-01-06T00:38:01;16.20;46.50
4411;DHT22;2218;51.408;7.208;2024-01-06T00:40:28;16.20;46.50
4411;DHT22;2218;51.408;7.208;2024-01-06T00:42:54;16.20;46.50
4411;DHT22;2218;51.408;7.208;2024-01-06T00:45:23;16.20;46.60
4411;DHT22;2218;51.408;7.208;2024-01-06T00:47:50;16.20;46.60
4411;DHT22;2218;51.408;7.208;2024-01-06T00:50:17;16.20;46.60
4411;DHT22;2218;51.408;7.208;2024-01-06T00:52:45;16.10;46.60
4411;DHT22;2218;51.408;7.208;2024-01-06T00:55:12;16.10;46.60
4411;DHT22;2218;51.408;7.208;2024-01-06T00:57:39;16.10;46.60
4411;DHT22;2218;51.408;7.208;2024-01-06T01:00:07;16.10;46.60
4411;DHT22;2218;51.408;7.208;2024-01-06T01:02:35;16.10;46.60
4411;DHT22;2218;51.408;7.208;2024-01-06T01:05:03;16.10;46.60
4411;DHT22;2218;51.408;7.208;2024-01-06T01:07:30;16.10;46.70
4411;DHT22;2218;51.408;7.208;2024-01-06T01:09:56;16.10;46.60
4411;DHT22;2218;51.408;7.208;2024-01-06T01:12:24;16.10;46.60
4411;DHT22;2218;51.408;7.208;2024-01-06T01:14:51;16.10;46.70
4411;DHT22;2218;51.408;7.208;2024-01-06T01:17:18;16.10;46.70
4411;DHT22;2218;51.408;7.208;2024-01-06T01:19:47;16.10;46.70
4411;DHT22;2218;51.408;7.208;2024-01-06T01:22:14;16.10;46.70
4411;DHT22;2218;51.408;7.208;2024-01-06T01:24:42;16.00;46.60
4411;DHT22;2218;51.408;7.208;2024-01-06T01:27:09;16.00;46.60
4411;DHT22;2218;51.408;7.208;2024-01-06T01:29:36;16.00;46.60
4411;DHT22;2218;51.408;7.208;2024-01-06T01:32:05;16.00;46.70
4411;DHT22;2218;51.408;7.208;2024-01-06T01:34:32;16.00;46.70
4411;DHT22;2218;51.408;7.208;2024-01-06T01:37:01;16.10;46.80
4411;DHT22;2218;51.408;7.208;2024-01-06T01:39:28;16.00;46.70
4411;DHT22;2218;51.408;7.208;2024-01-06T01:41:55;16.00;46.70
4411;DHT22;2218;51.408;7.208;2024-01-06T01:44:22;16.00;46.70
4411;DHT22;2218;51.408;7.208;2024-01-06T01:46:49;16.00;46.70
4411;DHT22;2218;51.408;7.208;2024-01-06T01:49:16;16.00;46.70
4411;DHT22;2218;51.408;7.208;2024-01-06T01:51:43;16.00;46.70
4411;DHT22;2218;51.408;7.208;2024-01-06T01:54:12;16.00;46.80
4411;DHT22;2218;51.408;7.208;2024-01-06T01:56:42;16.00;46.80
4411;DHT22;2218;51.408;7.208;2024-01-06T01:59:11;16.00;46.80
4411;DHT22;2218;51.408;7.208;2024-01-06T02:01:39;16.00;46.80
4411;DHT22;2218;51.408;7.208;2024-01-06T02:04:08;16.00;46.80
4411;DHT22;2218;51.408;7.208;2024-01-06T02:06:35;15.90;46.70
4411;DHT22;2218;51.408;7.208;2024-01-06T02:09:02;15.90;46.80
4411;DHT22;2218;51.408;7.208;2024-01-06T02:11:30;16.00;46.80
4411;DHT22;2218;51.408;7.208;2024-01-06T02:13:57;15.90;46.80
4411;DHT22;2218;51.408;7.208;2024-01-06T02:16:24;16.00;46.80
4411;DHT22;2218;51.408;7.208;2024-01-06T02:18:52;15.90;46.80
4411;DHT22;2218;51.408;7.208;2024-01-06T02:21:21;15.90;46.80
4411;DHT22;2218;51.408;7.208;2024-01-06T02:23:50;15.90;46.80
4411;DHT22;2218;51.408;7.208;2024-01-06T02:26:16;15.90;46.80
4411;DHT22;2218;51.408;7.208;2024-01-06T02:28:43;15.90;46.80
4411;DHT22;2218;51.408;7.208;2024-01-06T02:31:13;15.90;46.90
4411;DHT22;2218;51.408;7.208;2024-01-06T02:33:41;15.90;46.90
4411;DHT22;2218;51.408;7.208;2024-01-06T02:36:08;15.90;46.90
4411;DHT22;2218;51.408;7.208;2024-01-06T02:38:35;15.90;46.70
4411;DHT22;2218;51.408;7.208;2024-01-06T02:41:03;15.90;46.70
4411;DHT22;2218;51.408;7.208;2024-01-06T02:43:30;15.90;46.60
4411;DHT22;2218;51.408;7.208;2024-01-06T02:45:57;16.00;46.60
4411;DHT22;2218;51.408;7.208;2024-01-06T02:48:24;16.00;46.50
4411;DHT22;2218;51.408;7.208;2024-01-06T02:50:51;16.00;46.50
4411;DHT22;2218;51.408;7.208;2024-01-06T02:53:19;16.00;46.40
4411;DHT22;2218;51.408;7.208;2024-01-06T02:55:46;16.10;46.50
4411;DHT22;2218;51.408;7.208;2024-01-06T02:58:14;16.10;46.90
4411;DHT22;2218;51.408;7.208;2024-01-06T03:00:41;16.10;46.40
4411;DHT22;2218;51.408;7.208;2024-01-06T03:03:08;16.10;46.40
4411;DHT22;2218;51.408;7.208;2024-01-06T03:05:36;16.20;46.40
4411;DHT22;2218;51.408;7.208;2024-01-06T03:08:04;16.10;46.40
4411;DHT22;2218;51.408;7.208;2024-01-06T03:10:31;16.10;46.40
4411;DHT22;2218;51.408;7.208;2024-01-06T03:12:59;16.10;46.30
4411;DHT22;2218;51.408;7.208;2024-01-06T03:15:27;16.20;46.40
4411;DHT22;2218;51.408;7.208;2024-01-06T03:17:54;16.20;46.40
4411;DHT22;2218;51.408;7.208;2024-01-06T03:20:22;16.20;46.40
4411;DHT22;2218;51.408;7.208;2024-01-06T03:22:49;16.20;46.40
4411;DHT22;2218;51.408;7.208;2024-01-06T03:25:16;16.20;46.40
4411;DHT22;2218;51.408;7.208;2024-01-06T03:27:43;16.20;46.40
4411;DHT22;2218;51.408;7.208;2024-01-06T03:30:12;16.20;46.30
4411;DHT22;2218;51.408;7.208;2024-01-06T03:32:41;16.20;46.40
4411;DHT22;2218;51.408;7.208;2024-01-06T03:35:08;16.20;46.30
4411;DHT22;2218;51.408;7.208;2024-01-06T03:37:35;16.20;46.40
4411;DHT22;2218;51.408;7.208;2024-01-06T03:40:02;16.20;46.30
4411;DHT22;2218;51.408;7.208;2024-01-06T03:42:30;16.20;46.30
4411;DHT22;2218;51.408;7.208;2024-01-06T03:44:57;16.20;46.30
4411;DHT22;2218;51.408;7.208;2024-01-06T03:47:24;16.20;46.40
4411;DHT22;2218;51.408;7.208;2024-01-06T03:49:52;16.30;46.40
4411;DHT22;2218;51.408;7.208;2024-01-06T03:52:19;16.20;46.30
4411;DHT22;2218;51.408;7.208;2024-01-06T03:54:46;16.20;46.30
4411;DHT22;2218;51.408;7.208;2024-01-06T03:57:13;16.30;46.30
4411;DHT22;2218;51.408;7.208;2024-01-06T03:59:41;16.20;46.30
4411;DHT22;2218;51.408;7.208;2024-01-06T04:02:08;16.20;46.30
4411;DHT22;2218;51.408;7.208;2024-01-06T04:04:35;16.30;46.40
4411;DHT22;2218;51.408;7.208;2024-01-06T04:07:05;16.30;46.30
4411;DHT22;2218;51.408;7.208;2024-01-06T04:09:32;16.30;46.30
4411;DHT22;2218;51.408;7.208;2024-01-06T04:11:59;16.30;46.30
4411;DHT22;2218;51.408;7.208;2024-01-06T04:14:27;16.30;46.30
4411;DHT22;2218;51.408;7.208;2024-01-06T04:16:55;16.30;46.30
4411;DHT22;2218;51.408;7.208;2024-01-06T04:19:22;16.30;46.30
4411;DHT22;2218;51.408;7.208;2024-01-06T04:21:49;16.30;46.30
4411;DHT22;2218;51.408;7.208;2024-01-06T04:24:17;16.30;46.30
4411;DHT22;2218;51.408;7.208;2024-01-06T04:26:44;16.30;46.30
4411;DHT22;2218;51.408;7.208;2024-01-06T04:29:11;16.30;46.20
4411;DHT22;2218;51.408;7.208;2024-01-06T04:31:39;16.30;46.30
4411;DHT22;2218;51.408;7.208;2024-01-06T04:34:06;16.30;46.30
4411;DHT22;2218;51.408;7.208;2024-01-06T04:36:33;16.30;46.20
4411;DHT22;2218;51.408;7.208;2024-01-06T04:39:00;16.30;46.20
4411;DHT22;2218;51.408;7.208;2024-01-06T04:41:28;16.30;46.20
4411;DHT22;2218;51.408;7.208;2024-01-06T04:43:55;16.30;46.20
4411;DHT22;2218;51.408;7.208;2024-01-06T04:46:22;16.30;46.20
4411;DHT22;2218;51.408;7.208;2024-01-06T04:48:49;16.30;46.20
4411;DHT22;2218;51.408;7.208;2024-01-06T04:51:16;16.30;46.20
4411;DHT22;2218;51.408;7.208;2024-01-06T04:53:43;16.30;46.20
4411;DHT22;2218;51.408;7.208;2024-01-06T04:56:10;16.30;46.20
4411;DHT22;2218;51.408;7.208;2024-01-06T04:58:38;16.30;46.20
4411;DHT22;2218;51.408;7.208;2024-01-06T05:01:06;16.30;46.20
4411;DHT22;2218;51.408;7.208;2024-01-06T05:03:33;16.30;46.20
4411;DHT22;2218;51.408;7.208;2024-01-06T05:06:00;16.30;46.20
4411;DHT22;2218;51.408;7.208;2024-01-06T05:08:27;16.30;46.20
4411;DHT22;2218;51.408;7.208;2024-01-06T05:10:56;16.30;46.10
4411;DHT22;2218;51.408;7.208;2024-01-06T05:13:23;16.30;46.20
4411;DHT22;2218;51.408;7.208;2024-01-06T05:15:51;16.30;46.10
4411;DHT22;2218;51.408;7.208;2024-01-06T05:18:18;16.30;46.20
4411;DHT22;2218;51.408;7.208;2024-01-06T05:20:45;16.30;46.20
4411;DHT22;2218;51.408;7.208;2024-01-06T05:23:12;16.30;46.20
4411;DHT22;2218;51.408;7.208;2024-01-06T05:25:39;16.40;46.20
4411;DHT22;2218;51.408;7.208;2024-01-06T05:28:07;16.40;46.20
4411;DHT22;2218;51.408;7.208;2024-01-06T05:30:34;16.30;46.10
4411;DHT22;2218;51.408;7.208;2024-01-06T05:33:03;16.40;46.20
4411;DHT22;2218;51.408;7.208;2024-01-06T05:35:30;16.40;46.20
4411;DHT22;2218;51.408;7.208;2024-01-06T05:37:57;16.40;46.20
4411;DHT22;2218;51.408;7.208;2024-01-06T05:40:24;16.40;46.20
4411;DHT22;2218;51.408;7.208;2024-01-06T05:42:51;16.40;46.20
4411;DHT22;2218;51.408;7.208;2024-01-06T05:45:21;16.40;46.20
4411;DHT22;2218;51.408;7.208;2024-01-06T05:47:47;16.40;46.20
4411;DHT22;2218;51.408;7.208;2024-01-06T05:50:16;16.40;46.20
4411;DHT22;2218;51.408;7.208;2024-01-06T05:52:44;16.40;46.20
4411;DHT22;2218;51.408;7.208;2024-01-06T05:55:13;16.40;46.20
4411;DHT22;2218;51.408;7.208;2024-01-06T05:57:39;16.40;46.20
4411;DHT22;2218;51.408;7.208;2024-01-06T06:00:08;16.40;46.10
4411;DHT22;2218;51.408;7.208;2024-01-06T06:02:40;16.40;46.20
4411;DHT22;2218;51.408;7.208;2024-01-06T06:05:07;16.40;46.10
4411;DHT22;2218;51.408;7.208;2024-01-06T06:07:36;16.40;46.70
4411;DHT22;2218;51.408;7.208;2024-01-06T06:10:06;16.40;46.10
4411;DHT22;2218;51.408;7.208;2024-01-06T06:12:34;16.40;46.10
4411;DHT22;2218;51.408;7.208;2024-01-06T06:15:03;16.40;46.10
4411;DHT22;2218;51.408;7.208;2024-01-06T06:17:30;16.40;46.10
4411;DHT22;2218;51.408;7.208;2024-01-06T06:19:57;16.40;46.10
4411;DHT22;2218;51.408;7.208;2024-01-06T06:22:25;16.40;46.10
4411;DHT22;2218;51.408;7.208;2024-01-06T06:24:57;16.40;46.10
4411;DHT22;2218;51.408;7.208;2024-01-06T06:27:24;16.40;46.10
4411;DHT22;2218;51.408;7.208;2024-01-06T06:29:52;16.40;46.10
4411;DHT22;2218;51.408;7.208;2024-01-06T06:32:19;16.40;46.10
4411;DHT22;2218;51.408;7.208;2024-01-06T06:34:46;16.40;46.10
4411;DHT22;2218;51.408;7.208;2024-01-06T06:37:13;16.40;46.10
4411;DHT22;2218;51.408;7.208;2024-01-06T06:39:41;16.40;46.10
4411;DHT22;2218;51.408;7.208;2024-01-06T06:42:11;16.40;46.00
4411;DHT22;2218;51.408;7.208;2024-01-06T06:44:38;16.40;46.00
4411;DHT22;2218;51.408;7.208;2024-01-06T06:47:05;16.40;46.10
4411;DHT22;2218;51.408;7.208;2024-01-06T06:49:32;16.40;46.00
4411;DHT22;2218;51.408;7.208;2024-01-06T06:51:59;16.40;46.00
4411;DHT22;2218;51.408;7.208;2024-01-06T06:54:28;16.40;46.00
4411;DHT22;2218;51.408;7.208;2024-01-06T06:56:55;16.40;46.10
4411;DHT22;2218;51.408;7.208;2024-01-06T06:59:23;16.40;46.00
4411;DHT22;2218;51.408;7.208;2024-01-06T07:01:50;16.40;46.00
4411;DHT22;2218;51.408;7.208;2024-01-06T07:04:17;16.40;46.00
4411;DHT22;2218;51.408;7.208;2024-01-06T07:06:44;16.40;46.00
4411;DHT22;2218;51.408;7.208;2024-01-06T07:09:11;16.40;46.00
4411;DHT22;2218;51.408;7.208;2024-01-06T07:11:38;16.40;46.00
4411;DHT22;2218;51.408;7.208;2024-01-06T07:14:05;16.40;46.00
4411;DHT22;2218;51.408;7.208;2024-01-06T07:16:34;16.40;46.00
4411;DHT22;2218;51.408;7.208;2024-01-06T07:19:01;16.40;46.00
4411;DHT22;2218;51.408;7.208;2024-01-06T07:21:28;16.40;46.00
4411;DHT22;2218;51.408;7.208;2024-01-06T07:23:55;16.50;46.10
4411;DHT22;2218;51.408;7.208;2024-01-06T07:26:22;16.50;46.10
4411;DHT22;2218;51.408;7.208;2024-01-06T07:28:49;16.50;46.10
4411;DHT22;2218;51.408;7.208;2024-01-06T07:31:16;16.50;46.10
4411;DHT22;2218;51.408;7.208;2024-01-06T07:33:45;16.50;46.00
4411;DHT22;2218;51.408;7.208;2024-01-06T07:36:12;16.50;46.00
4411;DHT22;2218;51.408;7.208;2024-01-06T07:38:39;16.50;46.10
4411;DHT22;2218;51.408;7.208;2024-01-06T07:41:07;16.60;46.10
4411;DHT22;2218;51.408;7.208;2024-01-06T07:43:34;16.60;46.10
4411;DHT22;2218;51.408;7.208;2024-01-06T07:46:01;16.60;46.10
4411;DHT22;2218;51.408;7.208;2024-01-06T07:48:29;16.60;46.10
4411;DHT22;2218;51.408;7.208;2024-01-06T07:50:57;16.60;46.10
4411;DHT22;2218;51.408;7.208;2024-01-06T07:53:24;16.60;46.00
4411;DHT22;2218;51.408;7.208;2024-01-06T07:55:51;16.60;46.00
4411;DHT22;2218;51.408;7.208;2024-01-06T07:58:18;16.60;46.00
4411;DHT22;2218;51.408;7.208;2024-01-06T08:00:45;16.60;46.00
4411;DHT22;2218;51.408;7.208;2024-01-06T08:03:13;16.60;46.00
4411;DHT22;2218;51.408;7.208;2024-01-06T08:05:41;16.60;46.00
4411;DHT22;2218;51.408;7.208;2024-01-06T08:08:10;16.70;46.00
4411;DHT22;2218;51.408;7.208;2024-01-06T08:10:38;16.70;46.00
4411;DHT22;2218;51.408;7.208;2024-01-06T08:13:05;16.70;46.00
4411;DHT22;2218;51.408;7.208;2024-01-06T08:15:32;16.70;46.00
4411;DHT22;2218;51.408;7.208;2024-01-06T08:17:59;16.70;46.00
4411;DHT22;2218;51.408;7.208;2024-01-06T08:20:26;16.70;46.00
4411;DHT22;2218;51.408;7.208;2024-01-06T08:22:53;16.70;46.00
4411;DHT22;2218;51.408;7.208;2024-01-06T08:25:21;16.70;46.00
4411;DHT22;2218;51.408;7.208;2024-01-06T08:27:48;16.70;46.00
4411;DHT22;2218;51.408;7.208;2024-01-06T08:30:15;16.70;46.00
4411;DHT22;2218;51.408;7.208;2024-01-06T08:32:42;16.70;46.00
4411;DHT22;2218;51.408;7.208;2024-01-06T08:35:09;16.70;45.90
4411;DHT22;2218;51.408;7.208;2024-01-06T08:37:36;16.70;45.90
4411;DHT22;2218;51.408;7.208;2024-01-06T08:40:04;16.80;46.00
4411;DHT22;2218;51.408;7.208;2024-01-06T08:42:34;16.80;46.00
4411;DHT22;2218;51.408;7.208;2024-01-06T08:45:01;16.80;46.00
4411;DHT22;2218;51.408;7.208;2024-01-06T08:47:28;16.80;46.00
4411;DHT22;2218;51.408;7.208;2024-01-06T08:49:55;16.80;46.00
4411;DHT22;2218;51.408;7.208;2024-01-06T08:52:22;16.80;46.00
4411;DHT22;2218;51.408;7.208;2024-01-06T08:54:49;16.80;46.00
4411;DHT22;2218;51.408;7.208;2024-01-06T08:57:16;16.80;46.00
4411;DHT22;2218;51.408;7.208;2024-01-06T08:59:44;16.80;45.90
4411;DHT22;2218;51.408;7.208;2024-01-06T09:02:11;16.80;45.90
4411;DHT22;2218;51.408;7.208;2024-01-06T09:04:38;16.80;45.90
4411;DHT22;2218;51.408;7.208;2024-01-06T09:07:05;16.80;45.90
4411;DHT22;2218;51.408;7.208;2024-01-06T09:09:32;16.80;45.90
4411;DHT22;2218;51.408;7.208;2024-01-06T09:11:59;16.90;46.00
4411;DHT22;2218;51.408;7.208;2024-01-06T09:14:26;16.80;45.90
4411;DHT22;2218;51.408;7.208;2024-01-06T09:16:54;16.90;45.90
4411;DHT22;2218;51.408;7.208;2024-01-06T09:19:21;16.90;45.90
4411;DHT22;2218;51.408;7.208;2024-01-06T09:21:48;16.90;45.90
4411;DHT22;2218;51.408;7.208;2024-01-06T09:24:15;16.90;45.90
4411;DHT22;2218;51.408;7.208;2024-01-06T09:26:42;16.90;45.90
4411;DHT22;2218;51.408;7.208;2024-01-06T09:29:09;16.90;45.90
4411;DHT22;2218;51.408;7.208;2024-01-06T09:31:36;16.90;45.90
4411;DHT22;2218;51.408;7.208;2024-01-06T09:34:06;16.90;45.90
4411;DHT22;2218;51.408;7.208;2024-01-06T09:36:37;16.90;45.80
4411;DHT22;2218;51.408;7.208;2024-01-06T09:39:04;16.90;45.80
4411;DHT22;2218;51.408;7.208;2024-01-06T09:41:33;16.90;45.80
4411;DHT22;2218;51.408;7.208;2024-01-06T09:44:01;16.90;45.80
4411;DHT22;2218;51.408;7.208;2024-01-06T09:46:29;16.90;45.80
4411;DHT22;2218;51.408;7.208;2024-01-06T09:48:56;16.90;45.80
4411;DHT22;2218;51.408;7.208;2024-01-06T09:51:25;16.90;45.80
4411;DHT22;2218;51.408;7.208;2024-01-06T09:53:56;16.90;45.80
4411;DHT22;2218;51.408;7.208;2024-01-06T09:56:28;17.00;45.90
4411;DHT22;2218;51.408;7.208;2024-01-06T09:58:56;17.00;45.90
4411;DHT22;2218;51.408;7.208;2024-01-06T10:01:23;16.90;45.80
4411;DHT22;2218;51.408;7.208;2024-01-06T10:03:50;17.00;45.90
4411;DHT22;2218;51.408;7.208;2024-01-06T10:06:17;17.00;45.90
4411;DHT22;2218;51.408;7.208;2024-01-06T10:08:50;17.00;45.90
4411;DHT22;2218;51.408;7.208;2024-01-06T10:11:18;17.00;45.80
4411;DHT22;2218;51.408;7.208;2024-01-06T10:13:48;17.00;45.80
4411;DHT22;2218;51.408;7.208;2024-01-06T10:16:16;17.00;45.90
4411;DHT22;2218;51.408;7.208;2024-01-06T10:18:44;17.00;45.80
4411;DHT22;2218;51.408;7.208;2024-01-06T10:21:11;17.00;45.80
4411;DHT22;2218;51.408;7.208;2024-01-06T10:23:39;17.00;45.80
4411;DHT22;2218;51.408;7.208;2024-01-06T10:26:12;17.00;45.80
4411;DHT22;2218;51.408;7.208;2024-01-06T10:28:39;17.00;45.80
4411;DHT22;2218;51.408;7.208;2024-01-06T10:31:08;17.00;45.80
4411;DHT22;2218;51.408;7.208;2024-01-06T10:33:35;17.00;45.80
4411;DHT22;2218;51.408;7.208;2024-01-06T10:36:03;17.00;45.80
4411;DHT22;2218;51.408;7.208;2024-01-06T10:38:31;17.00;45.80
4411;DHT22;2218;51.408;7.208;2024-01-06T10:41:01;17.00;45.80
4411;DHT22;2218;51.408;7.208;2024-01-06T10:43:35;17.00;45.80
4411;DHT22;2218;51.408;7.208;2024-01-06T10:46:06;17.00;45.80
4411;DHT22;2218;51.408;7.208;2024-01-06T10:48:37;17.00;45.80
4411;DHT22;2218;51.408;7.208;2024-01-06T10:51:08;17.00;45.80
4411;DHT22;2218;51.408;7.208;2024-01-06T10:53:36;17.00;45.80
4411;DHT22;2218;51.408;7.208;2024-01-06T10:56:05;17.10;45.80
4411;DHT22;2218;51.408;7.208;2024-01-06T10:58:34;17.10;45.90
4411;DHT22;2218;51.408;7.208;2024-01-06T11:01:08;17.10;45.90
4411;DHT22;2218;51.408;7.208;2024-01-06T11:03:36;17.10;45.80
4411;DHT22;2218;51.408;7.208;2024-01-06T11:06:05;17.10;45.80
4411;DHT22;2218;51.408;7.208;2024-01-06T11:08:35;17.10;45.80
4411;DHT22;2218;51.408;7.208;2024-01-06T11:11:15;17.10;45.80
4411;DHT22;2218;51.408;7.208;2024-01-06T11:13:45;17.10;45.80
4411;DHT22;2218;51.408;7.208;2024-01-06T11:16:33;17.10;45.80
4411;DHT22;2218;51.408;7.208;2024-01-06T11:19:00;17.10;45.80
4411;DHT22;2218;51.408;7.208;2024-01-06T11:21:27;17.10;45.80
4411;DHT22;2218;51.408;7.208;2024-01-06T11:24:18;17.10;45.80
4411;DHT22;2218;51.408;7.208;2024-01-06T11:26:50;17.10;45.80
4411;DHT22;2218;51.408;7.208;2024-01-06T11:29:19;17.10;45.80
4411;DHT22;2218;51.408;7.208;2024-01-06T11:32:17;17.10;45.80
4411;DHT22;2218;51.408;7.208;2024-01-06T11:34:52;17.10;45.80
4411;DHT22;2218;51.408;7.208;2024-01-06T11:37:25;17.10;45.80
4411;DHT22;2218;51.408;7.208;2024-01-06T11:40:02;17.10;45.80
4411;DHT22;2218;51.408;7.208;2024-01-06T11:42:32;17.10;45.80
4411;DHT22;2218;51.408;7.208;2024-01-06T11:45:04;17.10;45.80
4411;DHT22;2218;51.408;7.208;2024-01-06T11:47:32;17.10;45.80
4411;DHT22;2218;51.408;7.208;2024-01-06T11:50:00;17.10;45.80
4411;DHT22;2218;51.408;7.208;2024-01-06T11:52:30;17.10;45.80
4411;DHT22;2218;51.408;7.208;2024-01-06T11:54:58;17.10;45.70
4411;DHT22;2218;51.408;7.208;2024-01-06T11:57:26;17.10;45.80
4411;DHT22;2218;51.408;7.208;2024-01-06T11:59:54;17.20;45.80
4411;DHT22;2218;51.408;7.208;2024-01-06T12:02:22;17.20;45.80
4411;DHT22;2218;51.408;7.208;2024-01-06T12:04:50;17.10;45.70
4411;DHT22;2218;51.408;7.208;2024-01-06T12:07:18;17.10;45.70
4411;DHT22;2218;51.408;7.208;2024-01-06T12:09:46;17.10;45.70
4411;DHT22;2218;51.408;7.208;2024-01-06T12:12:15;17.20;45.70
4411;DHT22;2218;51.408;7.208;2024-01-06T12:14:43;17.10;45.60
4411;DHT22;2218;51.408;7.208;2024-01-06T12:17:11;17.20;45.70
4411;DHT22;2218;51.408;7.208;2024-01-06T12:19:40;17.20;45.70
4411;DHT22;2218;51.408;7.208;2024-01-06T12:22:11;17.20;45.70
4411;DHT22;2218;51.408;7.208;2024-01-06T12:24:39;17.20;45.70
4411;DHT22;2218;51.408;7.208;2024-01-06T12:27:07;17.20;45.70
4411;DHT22;2218;51.408;7.208;2024-01-06T12:29:38;17.20;45.70
4411;DHT22;2218;51.408;7.208;2024-01-06T12:32:06;17.20;45.70
4411;DHT22;2218;51.408;7.208;2024-01-06T12:34:33;17.20;45.70
4411;DHT22;2218;51.408;7.208;2024-01-06T12:37:03;17.20;45.70
4411;DHT22;2218;51.408;7.208;2024-01-06T12:39:30;17.20;45.70
4411;DHT22;2218;51.408;7.208;2024-01-06T12:41:58;17.20;45.70
4411;DHT22;2218;51.408;7.208;2024-01-06T12:44:26;17.20;45.70
4411;DHT22;2218;51.408;7.208;2024-01-06T12:46:54;17.20;45.70
4411;DHT22;2218;51.408;7.208;2024-01-06T12:49:21;17.20;45.70
4411;DHT22;2218;51.408;7.208;2024-01-06T12:51:48;17.20;45.70
4411;DHT22;2218;51.408;7.208;2024-01-06T12:54:17;17.20;46.20
4411;DHT22;2218;51.408;7.208;2024-01-06T12:56:44;17.20;45.70
4411;DHT22;2218;51.408;7.208;2024-01-06T12:59:11;17.20;45.70
4411;DHT22;2218;51.408;7.208;2024-01-06T13:01:39;17.20;45.70
4411;DHT22;2218;51.408;7.208;2024-01-06T13:04:06;17.20;45.70
4411;DHT22;2218;51.408;7.208;2024-01-06T13:06:34;17.20;45.70
4411;DHT22;2218;51.408;7.208;2024-01-06T13:09:01;17.20;45.70
4411;DHT22;2218;51.408;7.208;2024-01-06T13:11:33;17.20;45.70
4411;DHT22;2218;51.408;7.208;2024-01-06T13:14:01;17.20;45.60
4411;DHT22;2218;51.408;7.208;2024-01-06T13:16:28;17.20;45.70
4411;DHT22;2218;51.408;7.208;2024-01-06T13:18:55;17.20;45.60
4411;DHT22;2218;51.408;7.208;2024-01-06T13:21:22;17.20;45.60
4411;DHT22;2218;51.408;7.208;2024-01-06T13:23:49;17.20;45.60
4411;DHT22;2218;51.408;7.208;2024-01-06T13:26:16;17.20;45.60
4411;DHT22;2218;51.408;7.208;2024-01-06T13:28:45;17.20;45.60
4411;DHT22;2218;51.408;7.208;2024-01-06T13:31:12;17.20;45.60
4411;DHT22;2218;51.408;7.208;2024-01-06T13:33:40;17.30;45.70
4411;DHT22;2218;51.408;7.208;2024-01-06T13:36:07;17.20;45.60
4411;DHT22;2218;51.408;7.208;2024-01-06T13:38:34;17.20;45.50
4411;DHT22;2218;51.408;7.208;2024-01-06T13:41:01;17.20;45.60
4411;DHT22;2218;51.408;7.208;2024-01-06T13:43:29;17.20;45.60
4411;DHT22;2218;51.408;7.208;2024-01-06T13:45:58;17.30;45.60
4411;DHT22;2218;51.408;7.208;2024-01-06T13:48:27;17.20;45.50
4411;DHT22;2218;51.408;7.208;2024-01-06T13:50:54;17.30;45.60
4411;DHT22;2218;51.408;7.208;2024-01-06T13:53:22;17.30;45.60
4411;DHT22;2218;51.408;7.208;2024-01-06T13:55:49;17.30;45.60
4411;DHT22;2218;51.408;7.208;2024-01-06T13:58:15;17.20;45.60
4411;DHT22;2218;51.408;7.208;2024-01-06T14:00:43;17.30;45.60
4411;DHT22;2218;51.408;7.208;2024-01-06T14:03:13;17.30;45.60
4411;DHT22;2218;51.408;7.208;2024-01-06T14:05:40;17.30;45.70
4411;DHT22;2218;51.408;7.208;2024-01-06T14:08:08;17.30;45.70
4411;DHT22;2218;51.408;7.208;2024-01-06T14:10:35;17.20;45.50
4411;DHT22;2218;51.408;7.208;2024-01-06T14:13:03;17.30;45.60
4411;DHT22;2218;51.408;7.208;2024-01-06T14:15:30;17.30;45.60
4411;DHT22;2218;51.408;7.208;2024-01-06T14:17:59;17.30;45.60
4411;DHT22;2218;51.408;7.208;2024-01-06T14:20:27;17.30;45.60
4411;DHT22;2218;51.408;7.208;2024-01-06T14:22:54;17.30;45.60
4411;DHT22;2218;51.408;7.208;2024-01-06T14:25:21;17.30;45.60
4411;DHT22;2218;51.408;7.208;2024-01-06T14:27:48;17.30;45.60
4411;DHT22;2218;51.408;7.208;2024-01-06T14:30:15;17.30;45.60
4411;DHT22;2218;51.408;7.208;2024-01-06T14:32:42;17.30;45.60
4411;DHT22;2218;51.408;7.208;2024-01-06T14:35:09;17.30;45.60
4411;DHT22;2218;51.408;7.208;2024-01-06T14:37:38;17.30;45.60
4411;DHT22;2218;51.408;7.208;2024-01-06T14:40:07;17.30;45.60
4411;DHT22;2218;51.408;7.208;2024-01-06T14:42:34;17.30;45.60
4411;DHT22;2218;51.408;7.208;2024-01-06T14:45:02;17.30;45.60
4411;DHT22;2218;51.408;7.208;2024-01-06T14:47:29;17.30;45.60
4411;DHT22;2218;51.408;7.208;2024-01-06T14:49:57;17.30;45.60
4411;DHT22;2218;51.408;7.208;2024-01-06T14:52:24;17.30;45.50
4411;DHT22;2218;51.408;7.208;2024-01-06T14:54:54;17.30;45.50
4411;DHT22;2218;51.408;7.208;2024-01-06T14:57:21;17.30;45.50
4411;DHT22;2218;51.408;7.208;2024-01-06T14:59:48;17.30;45.50
4411;DHT22;2218;51.408;7.208;2024-01-06T15:02:15;17.30;45.50
4411;DHT22;2218;51.408;7.208;2024-01-06T15:04:42;17.30;45.50
4411;DHT22;2218;51.408;7.208;2024-01-06T15:07:10;17.30;45.50
4411;DHT22;2218;51.408;7.208;2024-01-06T15:09:38;17.30;45.50
4411;DHT22;2218;51.408;7.208;2024-01-06T15:12:07;17.30;45.50
4411;DHT22;2218;51.408;7.208;2024-01-06T15:14:34;17.30;45.50
4411;DHT22;2218;51.408;7.208;2024-01-06T15:17:01;17.30;45.50
4411;DHT22;2218;51.408;7.208;2024-01-06T15:19:28;17.30;45.50
4411;DHT22;2218;51.408;7.208;2024-01-06T15:21:57;17.30;45.40
4411;DHT22;2218;51.408;7.208;2024-01-06T15:24:24;17.30;45.40
4411;DHT22;2218;51.408;7.208;2024-01-06T15:26:51;17.30;45.40
4411;DHT22;2218;51.408;7.208;2024-01-06T15:29:20;17.40;45.90
4411;DHT22;2218;51.408;7.208;2024-01-06T15:31:47;17.40;45.50
4411;DHT22;2218;51.408;7.208;2024-01-06T15:34:14;17.30;45.30
4411;DHT22;2218;51.408;7.208;2024-01-06T15:36:41;17.30;45.30
4411;DHT22;2218;51.408;7.208;2024-01-06T15:39:07;17.40;45.40
4411;DHT22;2218;51.408;7.208;2024-01-06T15:41:35;17.40;45.40
4411;DHT22;2218;51.408;7.208;2024-01-06T15:44:04;17.40;45.40
4411;DHT22;2218;51.408;7.208;2024-01-06T15:46:32;17.30;45.30
4411;DHT22;2218;51.408;7.208;2024-01-06T15:48:59;17.40;45.40
4411;DHT22;2218;51.408;7.208;2024-01-06T15:51:26;17.40;45.40
4411;DHT22;2218;51.408;7.208;2024-01-06T15:53:53;17.40;45.40
4411;DHT22;2218;51.408;7.208;2024-01-06T15:56:20;17.30;45.30
4411;DHT22;2218;51.408;7.208;2024-01-06T15:58:47;17.40;45.40
4411;DHT22;2218;51.408;7.208;2024-01-06T16:01:14;17.30;45.30
4411;DHT22;2218;51.408;7.208;2024-01-06T16:03:42;17.40;45.40
4411;DHT22;2218;51.408;7.208;2024-01-06T16:06:09;17.30;45.20